D/T METAR WX W/DIR W/SPE G/SPE TEMP DEWP
3/07/20 22:50 EGCN 032150Z 20015KT 9999 SCT020 16/13 Q1008 SSW (200°) 17.3mph 16°C 13°C
3/07/20 22:20 EGCN 032120Z 21014KT 9999 SCT020 16/13 Q1008 SSW (210°) 16.1mph 16°C 13°C
3/07/20 21:50 EGCN 032050Z 20016KT 9999 BKN017 BKN022 16/13 Q1008 SSW (200°) 18.4mph 16°C 13°C
3/07/20 21:20 EGCN 032020Z 20016KT 9999 SCT017 BKN023 16/13 Q1008 SSW (200°) 18.4mph 16°C 13°C
3/07/20 20:50 EGCN 031950Z 20017KT 9999 SCT018 16/13 Q1008 SSW (200°) 19.6mph 16°C 13°C
3/07/20 20:20 EGCN 031920Z 20019KT 9999 FEW020 16/13 Q1008 SSW (200°) 21.9mph 16°C 13°C
3/07/20 19:50 EGCN 031850Z 21018KT 9999 FEW021 SCT027 16/13 Q1008 SSW (210°) 20.7mph 16°C 13°C
3/07/20 19:20 EGCN 031820Z 21017KT 9999 SCT018 BKN024 16/13 Q1009 SSW (210°) 19.6mph 16°C 13°C
3/07/20 18:50 EGCN 031750Z 21018KT 9999 FEW019 SCT025 16/13 Q1009 SSW (210°) 20.7mph 16°C 13°C
3/07/20 18:20 EGCN 031720Z 21022KT 9999 SCT020 BKN026 16/13 Q1009 SSW (210°) 25.3mph 16°C 13°C
3/07/20 17:50 EGCN 031650Z 21019G29KT 9999 FEW020 SCT026 16/13 Q1009 SSW (210°) 21.9mph 33.4mph 16°C 13°C
3/07/20 17:20 EGCN 031620Z 21018KT 9999 FEW017 SCT023 16/13 Q1010 SSW (210°) 20.7mph 16°C 13°C
3/07/20 16:50 EGCN 031550Z 22020KT 9999 SCT026 17/12 Q1010 SW (220°) 23.0mph 17°C 12°C
3/07/20 16:20 EGCN 031520Z 22023G36KT 9999 SCT025 17/12 Q1010 SW (220°) 26.5mph 41.4mph 17°C 12°C
3/07/20 15:50 EGCN 031450Z 22022KT 9999 SCT022 BKN028 17/13 Q1010 SW (220°) 25.3mph 17°C 13°C
3/07/20 15:20 EGCN 031420Z 21024KT 9999 SCT023 BKN028 17/12 Q1010 SSW (210°) 27.6mph 17°C 12°C
3/07/20 14:50 EGCN 031350Z 21022KT 9999 SCT023 BKN029 17/12 Q1010 SSW (210°) 25.3mph 17°C 12°C
3/07/20 14:20 EGCN 031320Z 21021KT 9999 BKN021 17/13 Q1010 RERA SSW (210°) 24.2mph 17°C 13°C
3/07/20 13:50 EGCN 031250Z 21018KT 9999 SCT023 BKN029 17/13 Q1011 SSW (210°) 20.7mph 17°C 13°C
3/07/20 13:20 EGCN 031220Z 22022KT 9999 FEW028 SCT034 16/12 Q1011 SW (220°) 25.3mph 16°C 12°C
3/07/20 12:50 EGCN 031150Z 22020KT 9999 SCT034 16/11 Q1011 SW (220°) 23.0mph 16°C 11°C
3/07/20 12:20 EGCN 031120Z 22020KT 9999 SCT027 16/12 Q1011 SW (220°) 23.0mph 16°C 12°C
3/07/20 11:50 EGCN 031050Z 23016KT 9999 SCT027 16/12 Q1012 SW (230°) 18.4mph 16°C 12°C
3/07/20 11:20 EGCN 031020Z 22015KT 9999 FEW030 15/11 Q1011 SW (220°) 17.3mph 15°C 11°C
3/07/20 10:20 EGCN 030920Z 22011KT 9999 SCT022 BKN027 BKN039 14/11 Q1012 RERA SW (220°) 12.7mph 14°C 11°C
3/07/20 09:50 EGCN 030850Z 21013KT 9999 -RA SCT023 BKN028 14/11 Q1012 -RA SSW (210°) 15.0mph 14°C 11°C
3/07/20 09:20 EGCN 030820Z 21014KT 9999 -RA SCT023 BKN028 14/11 Q1012 -RA SSW (210°) 16.1mph 14°C 11°C
3/07/20 08:50 EGCN 030750Z 20012KT 9999 SCT024 BKN047 14/11 Q1012 SSW (200°) 13.8mph 14°C 11°C
3/07/20 08:20 EGCN 030720Z 21015KT 9999 -RA FEW048 13/11 Q1012 -RA SSW (210°) 17.3mph 13°C 11°C
3/07/20 07:50 EGCN 030650Z 20014KT 9999 FEW030 13/11 Q1012 SSW (200°) 16.1mph 13°C 11°C
3/07/20 07:20 EGCN 030620Z 19011KT CAVOK 13/10 Q1012 S (190°) 12.7mph 13°C 10°C
3/07/20 06:50 EGCN 030550Z 20011KT 9999 FEW030 13/10 Q1013 SSW (200°) 12.7mph 13°C 10°C
3/07/20 06:20 EGCN 030520Z 19012KT CAVOK 13/10 Q1013 S (190°) 13.8mph 13°C 10°C
3/07/20 05:50 EGCN 030450Z 18008KT CAVOK 12/10 Q1013 S (180°) 9.2mph 12°C 10°C
3/07/20 05:20 EGCN 030420Z AUTO 19008KT 9999 NCD 12/10 Q1013 S (190°) 9.2mph 12°C 10°C
3/07/20 04:50 EGCN 030350Z AUTO 20008KT 9999 NCD 12/10 Q1013 SSW (200°) 9.2mph 12°C 10°C
3/07/20 04:20 EGCN 030320Z AUTO 19007KT 9999 NCD 12/10 Q1013 S (190°) 8.1mph 12°C 10°C
3/07/20 03:50 EGCN 030250Z AUTO 21008KT 9999 NCD 12/10 Q1014 SSW (210°) 9.2mph 12°C 10°C
3/07/20 03:20 EGCN 030220Z AUTO 22008KT 9999 NCD 12/10 Q1014 SW (220°) 9.2mph 12°C 10°C
3/07/20 02:50 EGCN 030150Z AUTO 21007KT 9999 NCD 12/10 Q1014 SSW (210°) 8.1mph 12°C 10°C
3/07/20 02:20 EGCN 030120Z AUTO 21006KT 9999 NCD 12/10 Q1014 SSW (210°) 6.9mph 12°C 10°C
3/07/20 01:50 EGCN 030050Z AUTO 22006KT 9999 NCD 13/11 Q1014 SW (220°) 6.9mph 13°C 11°C
3/07/20 01:20 EGCN 030020Z AUTO 22005KT 9999 NCD 13/12 Q1014 SW (220°) 5.8mph 13°C 12°C
3/07/20 00:20 EGCN 022320Z AUTO 17005KT 9999 NCD 13/12 Q1015 S (170°) 5.8mph 13°C 12°C
2/07/20 23:50 EGCN 022250Z AUTO 18007KT 150V230 9999 SCT004/// BKN015/// BKN019/// 13/12 Q1015 S (180°) 8.1mph 13°C 12°C
2/07/20 23:20 EGCN 022220Z 18003KT 9999 SCT021 BKN026 BKN035 13/12 Q1015 S (180°) 3.5mph 13°C 12°C
2/07/20 22:50 EGCN 022150Z VRB03KT 9999 SCT018 SCT024 BKN030 13/12 Q1015 N (0°) 3.5mph 13°C 12°C
2/07/20 21:50 EGCN 022050Z 13004KT 9999 FEW007 BKN018 OVC036 13/12 Q1015 SE (130°) 4.6mph 13°C 12°C
2/07/20 21:20 EGCN 022020Z 13005KT 9999 FEW006 SCT011 BKN017 14/12 Q1015 SE (130°) 5.8mph 14°C 12°C
2/07/20 20:50 EGCN 021950Z 14004KT 9999 SCT008 BKN018 14/12 Q1015 SE (140°) 4.6mph 14°C 12°C
2/07/20 20:20 EGCN 021920Z VRB03KT 9999 FEW008 SCT013 BKN032 14/12 Q1014 N (0°) 3.5mph 14°C 12°C
2/07/20 19:50 EGCN 021850Z VRB03KT 9999 SCT008 SCT034 BKN047 14/12 Q1014 N (0°) 3.5mph 14°C 12°C
2/07/20 19:20 EGCN 021820Z 07004KT 030V100 9999 FEW008 SCT013 BKN027 14/12 Q1014 ENE (70°) 4.6mph 14°C 12°C
2/07/20 18:50 EGCN 021750Z VRB03KT 9999 FEW008 OVC020 14/12 Q1014 N (0°) 3.5mph 14°C 12°C
2/07/20 18:20 EGCN 021720Z VRB03KT 9999 FEW006 BKN022 14/12 Q1014 N (0°) 3.5mph 14°C 12°C
2/07/20 17:50 EGCN 021650Z 01006KT 9999 FEW006 BKN019 OVC023 14/12 Q1014 N (10°) 6.9mph 14°C 12°C
2/07/20 17:20 EGCN 021620Z 33005KT 9999 SCT015 OVC020 14/11 Q1014 NNW (330°) 5.8mph 14°C 11°C
2/07/20 16:50 EGCN 021550Z 35005KT 9999 SCT015 OVC019 14/11 Q1013 N (350°) 5.8mph 14°C 11°C
2/07/20 16:20 EGCN 021520Z VRB02KT 9999 FEW012 OVC019 14/11 Q1013 N (0°) 2.3mph 14°C 11°C
2/07/20 15:50 EGCN 021450Z VRB02KT 9999 SCT009 BKN015 OVC019 14/11 Q1013 N (0°) 2.3mph 14°C 11°C
2/07/20 15:20 EGCN 021420Z 36005KT 9999 FEW008 BKN013 OVC020 14/12 Q1013 N (360°) 5.8mph 14°C 12°C
2/07/20 14:50 EGCN 021350Z 01004KT 9999 FEW007 SCT010 BKN015 14/12 Q1013 N (10°) 4.6mph 14°C 12°C
2/07/20 14:20 EGCN 021320Z 01004KT 350V050 9999 SCT005 BKN008 BKN021 13/12 Q1013 N (10°) 4.6mph 13°C 12°C
2/07/20 13:50 EGCN 021250Z 03004KT 330V070 9000 SCT009 BKN014 BKN019 13/11 Q1012 NNE (30°) 4.6mph 13°C 11°C
2/07/20 13:20 EGCN 021220Z 03006KT 9999 SCT006 BKN010 OVC014 13/12 Q1012 NNE (30°) 6.9mph 13°C 12°C
2/07/20 12:50 EGCN 021150Z 01006KT 6000 -DZ SCT006 BKN011 OVC016 13/12 Q1012 RERA -DZ N (10°) 6.9mph 13°C 12°C
2/07/20 12:20 EGCN 021120Z 01007KT 9999 FEW007 SCT010 OVC015 13/12 Q1012 N (10°) 8.1mph 13°C 12°C
2/07/20 11:20 EGCN 021020Z 34008KT 9999 SCT006 BKN009 13/11 Q1011 NNW (340°) 9.2mph 13°C 11°C
2/07/20 10:50 EGCN 020950Z 36009KT 9999 SCT006 BKN009 13/11 Q1011 N (360°) 10.4mph 13°C 11°C
2/07/20 10:20 EGCN 020920Z 35009KT 9999 SCT004 BKN008 12/11 Q1010 N (350°) 10.4mph 12°C 11°C
2/07/20 09:50 EGCN 020850Z 35009KT 9999 SCT006 BKN009 12/11 Q1010 N (350°) 10.4mph 12°C 11°C
2/07/20 09:20 EGCN 020820Z 36009KT 9999 SCT005 BKN009 12/12 Q1009 N (360°) 10.4mph 12°C 12°C
2/07/20 08:50 EGCN 020750Z 36011KT 9999 -RA BKN004 OVC007 12/12 Q1009 -RA N (360°) 12.7mph 12°C 12°C
2/07/20 08:20 EGCN 020720Z 36009KT 4000 RA BKN003 OVC007 12/12 Q1009 RA N (360°) 10.4mph 12°C 12°C
2/07/20 07:50 EGCN 020650Z 35009KT 4000 RA BKN004 OVC008 12/12 Q1008 RA N (350°) 10.4mph 12°C 12°C
2/07/20 07:20 EGCN 020620Z 36007KT 4000 RA BKN004 OVC007 12/12 Q1008 RA N (360°) 8.1mph 12°C 12°C
2/07/20 06:50 EGCN 020550Z 01008KT 3900 +DZ SCT003 OVC007 13/12 Q1008 RERA +DZ N (10°) 9.2mph 13°C 12°C
2/07/20 06:20 EGCN 020520Z 36007KT 5000 RA SCT002 OVC006 13/12 Q1007 REDZ RA N (360°) 8.1mph 13°C 12°C
2/07/20 05:50 EGCN 020450Z 36007KT 3300 -DZ SCT002 OVC006 13/12 Q1007 REDZ -DZ N (360°) 8.1mph 13°C 12°C
2/07/20 05:20 EGCN 020420Z AUTO 36006KT 3100 -DZ BKN001/// OVC005/// 13/13 Q1007 RERA -DZ N (360°) 6.9mph 13°C 13°C
2/07/20 04:50 EGCN 020350Z AUTO 36006KT 3300 -DZ BKN003/// OVC012/// 13/12 Q1007 RERA -DZ N (360°) 6.9mph 13°C 12°C
2/07/20 03:50 EGCN 020250Z AUTO 36005KT 9999 FEW014/// OVC020/// 13/13 Q1007 RERA N (360°) 5.8mph 13°C 13°C
2/07/20 03:20 EGCN 020220Z AUTO 35006KT 6000 -RA FEW002/// BKN006/// BKN010/// 13/13 Q1007 RERA -RA N (350°) 6.9mph 13°C 13°C
2/07/20 02:50 EGCN 020150Z AUTO 31004KT 220V360 3300 +RA SCT003/// OVC006/// 13/13 Q1007 +RA NW (310°) 4.6mph 13°C 13°C
2/07/20 02:20 EGCN 020120Z AUTO VRB02KT 3900 RA OVC003/// 13/13 Q1007 RERA RA N (0°) 2.3mph 13°C 13°C
2/07/20 01:50 EGCN 020050Z AUTO 03004KT 360V060 3700 +RA BKN003/// OVC006/// 13/13 Q1007 +RA NNE (30°) 4.6mph 13°C 13°C
2/07/20 01:20 EGCN 020020Z AUTO 03004KT 4500 RA BKN003/// OVC007/// 13/13 Q1007 RA NNE (30°) 4.6mph 13°C 13°C
2/07/20 00:20 EGCN 012320Z AUTO 03006KT 5000 BR BKN003/// OVC006/// 13/13 Q1007 RERA BR NNE (30°) 6.9mph 13°C 13°C
1/07/20 23:50 EGCN 012250Z AUTO 03006KT 3400 RA BKN002/// OVC006/// 14/13 Q1007 REDZ RA NNE (30°) 6.9mph 14°C 13°C
1/07/20 23:20 EGCN 012220Z 03006KT 2600 -DZ SCT002 BKN006 14/13 Q1007 RERA -DZ NNE (30°) 6.9mph 14°C 13°C
1/07/20 22:50 EGCN 012150Z 05004KT 020V080 3500 -RADZ FEW003 BKN005 14/14 Q1007 -RA -DZ NE (50°) 4.6mph 14°C 14°C
1/07/20 21:50 EGCN 012050Z 04004KT 020V080 6000 SCT003 BKN046 15/14 Q1006 NE (40°) 4.6mph 15°C 14°C
1/07/20 21:20 EGCN 012020Z 05006KT 9999 FEW008 SCT031 15/14 Q1006 RERA NE (50°) 6.9mph 15°C 14°C
1/07/20 20:50 EGCN 011950Z 06006KT 030V100 3700 +RA FEW008 SCT016 BKN038 15/14 Q1006 +RA ENE (60°) 6.9mph 15°C 14°C
1/07/20 20:20 EGCN 011920Z 36010KT 9000 SHRA FEW017 BKN033 BKN048 16/14 Q1006 RERA SHRA N (360°) 11.5mph 16°C 14°C
1/07/20 19:50 EGCN 011850Z 15004KT 9999 SHRA BKN038 18/13 Q1005 SHRA SSE (150°) 4.6mph 18°C 13°C